KSXU

Santa Rosa Route 66 Airport

Santa Rosa, New Mexico, USA
METAR KSXU 170115Z AUTO 06008KT 10SM CLR 07/M10 A3031 RMK AO2 T00651097
Observed Flight Rules
Dec-17 @ 01:15 UTC (20 minutes ago) Visual Flight Rules
Wind Visibility Clouds
60° at 8 knots 10 miles
  • Clear skies
Temperatures Readings
Current 7°C / 45°F
Dewpoint -10°C / 14°F
Humidity 29%
Altimeter 30.31" Hg
Pressure 1026 hPa
Elevation 1460
METAR KSXU 170115Z AUTO 06008KT 10SM CLR 07/M10 A3031 RMK AO2 T00651097
Observed Flight Rules
Dec-17 @ 01:15 UTC
(20 minutes ago)
VFR
Wind Visibility
60° at 8 knots 10 miles
Clouds
  • Clear skies
Temperature Dewpoint
7°C / 45°F -10°C / 14°F
Humidity Altimeter Pressure
29% 30.31" Hg 1026 hPa